sensor_id;sensor_type;location;lat;lon;timestamp;P1;durP1;ratioP1;P2;durP2;ratioP2
76582;SDS011;65462;52.148;7.940;2023-04-08T00:02:07;7.27;;;4.50;;
76582;SDS011;65462;52.148;7.940;2023-04-08T00:04:33;7.17;;;4.30;;
76582;SDS011;65462;52.148;7.940;2023-04-08T00:06:58;7.23;;;3.83;;
76582;SDS011;65462;52.148;7.940;2023-04-08T00:09:23;7.63;;;4.33;;
76582;SDS011;65462;52.148;7.940;2023-04-08T00:11:48;6.70;;;4.13;;
76582;SDS011;65462;52.148;7.940;2023-04-08T00:14:14;6.17;;;3.60;;
76582;SDS011;65462;52.148;7.940;2023-04-08T00:16:39;6.03;;;3.60;;
76582;SDS011;65462;52.148;7.940;2023-04-08T00:19:05;6.60;;;4.30;;
76582;SDS011;65462;52.148;7.940;2023-04-08T00:21:30;7.00;;;4.47;;
76582;SDS011;65462;52.148;7.940;2023-04-08T00:23:56;5.60;;;4.03;;
76582;SDS011;65462;52.148;7.940;2023-04-08T00:26:21;6.93;;;4.37;;
76582;SDS011;65462;52.148;7.940;2023-04-08T00:28:47;6.37;;;4.13;;
76582;SDS011;65462;52.148;7.940;2023-04-08T00:31:12;8.23;;;4.03;;
76582;SDS011;65462;52.148;7.940;2023-04-08T00:33:38;5.20;;;3.70;;
76582;SDS011;65462;52.148;7.940;2023-04-08T00:36:03;4.80;;;3.97;;
76582;SDS011;65462;52.148;7.940;2023-04-08T00:38:28;6.80;;;3.87;;
76582;SDS011;65462;52.148;7.940;2023-04-08T00:40:54;6.07;;;3.90;;
76582;SDS011;65462;52.148;7.940;2023-04-08T00:43:20;5.33;;;3.57;;
76582;SDS011;65462;52.148;7.940;2023-04-08T00:45:46;7.43;;;4.23;;
76582;SDS011;65462;52.148;7.940;2023-04-08T00:48:11;5.80;;;3.80;;
76582;SDS011;65462;52.148;7.940;2023-04-08T00:50:37;5.93;;;3.67;;
76582;SDS011;65462;52.148;7.940;2023-04-08T00:53:02;8.90;;;3.70;;
76582;SDS011;65462;52.148;7.940;2023-04-08T00:55:27;6.33;;;3.90;;
76582;SDS011;65462;52.148;7.940;2023-04-08T00:57:53;6.97;;;3.50;;
76582;SDS011;65462;52.148;7.940;2023-04-08T01:00:18;6.83;;;3.40;;
76582;SDS011;65462;52.148;7.940;2023-04-08T01:02:50;7.60;;;3.70;;
76582;SDS011;65462;52.148;7.940;2023-04-08T01:05:35;6.87;;;3.60;;
76582;SDS011;65462;52.148;7.940;2023-04-08T01:10:35;5.83;;;3.40;;
76582;SDS011;65462;52.148;7.940;2023-04-08T01:13:04;5.87;;;3.40;;
76582;SDS011;65462;52.148;7.940;2023-04-08T01:15:32;7.47;;;3.53;;
76582;SDS011;65462;52.148;7.940;2023-04-08T01:18:00;5.00;;;3.50;;
76582;SDS011;65462;52.148;7.940;2023-04-08T01:20:30;6.67;;;3.70;;
76582;SDS011;65462;52.148;7.940;2023-04-08T01:25:34;8.33;;;3.57;;
76582;SDS011;65462;52.148;7.940;2023-04-08T01:28:05;5.97;;;3.50;;
76582;SDS011;65462;52.148;7.940;2023-04-08T01:30:33;6.77;;;3.20;;
76582;SDS011;65462;52.148;7.940;2023-04-08T01:33:00;10.13;;;3.57;;
76582;SDS011;65462;52.148;7.940;2023-04-08T01:35:27;5.63;;;3.43;;
76582;SDS011;65462;52.148;7.940;2023-04-08T01:37:55;4.37;;;3.37;;
76582;SDS011;65462;52.148;7.940;2023-04-08T01:40:21;6.10;;;3.13;;
76582;SDS011;65462;52.148;7.940;2023-04-08T01:42:47;8.23;;;3.43;;
76582;SDS011;65462;52.148;7.940;2023-04-08T01:45:14;6.10;;;3.80;;
76582;SDS011;65462;52.148;7.940;2023-04-08T01:47:40;5.43;;;3.23;;
76582;SDS011;65462;52.148;7.940;2023-04-08T01:50:07;7.17;;;3.40;;
76582;SDS011;65462;52.148;7.940;2023-04-08T01:52:36;5.40;;;3.10;;
76582;SDS011;65462;52.148;7.940;2023-04-08T01:55:04;5.47;;;3.13;;
76582;SDS011;65462;52.148;7.940;2023-04-08T01:57:31;5.90;;;3.30;;
76582;SDS011;65462;52.148;7.940;2023-04-08T02:00:01;6.30;;;3.73;;
76582;SDS011;65462;52.148;7.940;2023-04-08T02:02:29;5.57;;;3.27;;
76582;SDS011;65462;52.148;7.940;2023-04-08T02:04:57;5.90;;;3.60;;
76582;SDS011;65462;52.148;7.940;2023-04-08T02:07:22;8.63;;;3.70;;
76582;SDS011;65462;52.148;7.940;2023-04-08T02:09:48;8.23;;;3.70;;
76582;SDS011;65462;52.148;7.940;2023-04-08T02:12:14;5.23;;;3.30;;
76582;SDS011;65462;52.148;7.940;2023-04-08T02:14:40;6.40;;;3.50;;
76582;SDS011;65462;52.148;7.940;2023-04-08T02:17:12;5.30;;;3.40;;
76582;SDS011;65462;52.148;7.940;2023-04-08T02:22:16;5.20;;;3.47;;
76582;SDS011;65462;52.148;7.940;2023-04-08T02:25:03;5.17;;;3.40;;
76582;SDS011;65462;52.148;7.940;2023-04-08T02:27:32;5.03;;;3.40;;
76582;SDS011;65462;52.148;7.940;2023-04-08T02:29:58;5.30;;;3.70;;
76582;SDS011;65462;52.148;7.940;2023-04-08T02:32:27;4.30;;;3.30;;
76582;SDS011;65462;52.148;7.940;2023-04-08T02:34:54;5.80;;;3.70;;
76582;SDS011;65462;52.148;7.940;2023-04-08T02:37:20;4.70;;;2.97;;
76582;SDS011;65462;52.148;7.940;2023-04-08T02:39:46;5.13;;;3.57;;
76582;SDS011;65462;52.148;7.940;2023-04-08T02:42:11;6.00;;;3.50;;
76582;SDS011;65462;52.148;7.940;2023-04-08T02:44:36;5.00;;;3.30;;
76582;SDS011;65462;52.148;7.940;2023-04-08T02:47:01;4.40;;;3.20;;
76582;SDS011;65462;52.148;7.940;2023-04-08T02:49:27;4.87;;;3.57;;
76582;SDS011;65462;52.148;7.940;2023-04-08T02:51:52;5.60;;;3.10;;
76582;SDS011;65462;52.148;7.940;2023-04-08T02:54:17;4.93;;;3.50;;
76582;SDS011;65462;52.148;7.940;2023-04-08T02:56:42;6.13;;;3.83;;
76582;SDS011;65462;52.148;7.940;2023-04-08T02:59:08;6.53;;;3.80;;
76582;SDS011;65462;52.148;7.940;2023-04-08T03:01:33;5.57;;;3.47;;
76582;SDS011;65462;52.148;7.940;2023-04-08T03:03:58;5.50;;;3.53;;
76582;SDS011;65462;52.148;7.940;2023-04-08T03:06:24;5.97;;;3.67;;
76582;SDS011;65462;52.148;7.940;2023-04-08T03:08:49;5.03;;;3.43;;
76582;SDS011;65462;52.148;7.940;2023-04-08T03:11:15;5.67;;;3.70;;
76582;SDS011;65462;52.148;7.940;2023-04-08T03:13:40;6.57;;;3.40;;
76582;SDS011;65462;52.148;7.940;2023-04-08T03:16:05;5.63;;;3.70;;
76582;SDS011;65462;52.148;7.940;2023-04-08T03:18:31;4.33;;;3.17;;
76582;SDS011;65462;52.148;7.940;2023-04-08T03:20:56;6.33;;;4.30;;
76582;SDS011;65462;52.148;7.940;2023-04-08T03:23:22;5.83;;;3.53;;
76582;SDS011;65462;52.148;7.940;2023-04-08T03:25:47;4.87;;;3.30;;
76582;SDS011;65462;52.148;7.940;2023-04-08T03:28:12;5.47;;;3.33;;
76582;SDS011;65462;52.148;7.940;2023-04-08T03:30:38;4.87;;;3.73;;
76582;SDS011;65462;52.148;7.940;2023-04-08T03:33:03;7.63;;;4.10;;
76582;SDS011;65462;52.148;7.940;2023-04-08T03:35:31;5.53;;;3.87;;
76582;SDS011;65462;52.148;7.940;2023-04-08T03:37:57;6.73;;;3.87;;
76582;SDS011;65462;52.148;7.940;2023-04-08T03:40:22;7.73;;;3.80;;
76582;SDS011;65462;52.148;7.940;2023-04-08T03:42:47;8.10;;;4.20;;
76582;SDS011;65462;52.148;7.940;2023-04-08T03:45:13;6.87;;;4.20;;
76582;SDS011;65462;52.148;7.940;2023-04-08T03:47:38;5.97;;;4.20;;
76582;SDS011;65462;52.148;7.940;2023-04-08T03:50:05;7.93;;;4.27;;
76582;SDS011;65462;52.148;7.940;2023-04-08T03:52:30;7.23;;;4.17;;
76582;SDS011;65462;52.148;7.940;2023-04-08T03:54:56;7.70;;;4.33;;
76582;SDS011;65462;52.148;7.940;2023-04-08T03:57:21;8.00;;;4.27;;
76582;SDS011;65462;52.148;7.940;2023-04-08T03:59:46;6.07;;;4.10;;
76582;SDS011;65462;52.148;7.940;2023-04-08T04:02:11;5.43;;;3.80;;
76582;SDS011;65462;52.148;7.940;2023-04-08T04:04:37;7.87;;;4.30;;
76582;SDS011;65462;52.148;7.940;2023-04-08T04:07:02;8.13;;;5.00;;
76582;SDS011;65462;52.148;7.940;2023-04-08T04:09:28;6.33;;;4.20;;
76582;SDS011;65462;52.148;7.940;2023-04-08T04:11:53;6.30;;;4.60;;
76582;SDS011;65462;52.148;7.940;2023-04-08T04:14:18;6.97;;;4.40;;
76582;SDS011;65462;52.148;7.940;2023-04-08T04:16:43;6.77;;;4.10;;
76582;SDS011;65462;52.148;7.940;2023-04-08T04:19:09;8.33;;;4.77;;
76582;SDS011;65462;52.148;7.940;2023-04-08T04:21:34;9.43;;;4.77;;
76582;SDS011;65462;52.148;7.940;2023-04-08T04:24:02;7.00;;;4.80;;
76582;SDS011;65462;52.148;7.940;2023-04-08T04:26:28;7.40;;;4.43;;
76582;SDS011;65462;52.148;7.940;2023-04-08T04:28:53;7.43;;;4.80;;
76582;SDS011;65462;52.148;7.940;2023-04-08T04:31:22;6.50;;;4.50;;
76582;SDS011;65462;52.148;7.940;2023-04-08T04:33:51;7.90;;;4.90;;
76582;SDS011;65462;52.148;7.940;2023-04-08T04:36:17;7.87;;;5.17;;
76582;SDS011;65462;52.148;7.940;2023-04-08T04:38:42;7.83;;;4.97;;
76582;SDS011;65462;52.148;7.940;2023-04-08T04:41:08;7.70;;;4.73;;
76582;SDS011;65462;52.148;7.940;2023-04-08T04:43:33;8.13;;;4.77;;
76582;SDS011;65462;52.148;7.940;2023-04-08T04:45:59;7.80;;;4.77;;
76582;SDS011;65462;52.148;7.940;2023-04-08T04:48:24;6.73;;;4.43;;
76582;SDS011;65462;52.148;7.940;2023-04-08T04:50:56;9.70;;;4.73;;
76582;SDS011;65462;52.148;7.940;2023-04-08T04:53:23;9.53;;;4.70;;
76582;SDS011;65462;52.148;7.940;2023-04-08T04:55:51;7.77;;;4.70;;
76582;SDS011;65462;52.148;7.940;2023-04-08T04:58:17;7.50;;;4.67;;
76582;SDS011;65462;52.148;7.940;2023-04-08T05:00:43;6.80;;;4.60;;
76582;SDS011;65462;52.148;7.940;2023-04-08T05:03:08;6.90;;;4.50;;
76582;SDS011;65462;52.148;7.940;2023-04-08T05:05:33;7.83;;;4.70;;
76582;SDS011;65462;52.148;7.940;2023-04-08T05:07:59;6.73;;;4.57;;
76582;SDS011;65462;52.148;7.940;2023-04-08T05:10:24;7.97;;;4.60;;
76582;SDS011;65462;52.148;7.940;2023-04-08T05:12:50;9.40;;;4.80;;
76582;SDS011;65462;52.148;7.940;2023-04-08T05:15:15;7.73;;;5.07;;
76582;SDS011;65462;52.148;7.940;2023-04-08T05:17:40;11.53;;;4.83;;
76582;SDS011;65462;52.148;7.940;2023-04-08T05:20:06;8.00;;;5.03;;
76582;SDS011;65462;52.148;7.940;2023-04-08T05:22:31;9.63;;;5.27;;
76582;SDS011;65462;52.148;7.940;2023-04-08T05:24:57;8.40;;;4.93;;
76582;SDS011;65462;52.148;7.940;2023-04-08T05:27:22;8.13;;;4.87;;
76582;SDS011;65462;52.148;7.940;2023-04-08T05:29:47;8.73;;;4.77;;
76582;SDS011;65462;52.148;7.940;2023-04-08T05:32:12;7.07;;;4.20;;
76582;SDS011;65462;52.148;7.940;2023-04-08T05:34:38;6.10;;;4.40;;
76582;SDS011;65462;52.148;7.940;2023-04-08T05:37:03;6.90;;;5.00;;
76582;SDS011;65462;52.148;7.940;2023-04-08T05:39:29;7.50;;;5.00;;
76582;SDS011;65462;52.148;7.940;2023-04-08T05:41:54;8.17;;;4.70;;
76582;SDS011;65462;52.148;7.940;2023-04-08T05:44:20;7.20;;;4.63;;
76582;SDS011;65462;52.148;7.940;2023-04-08T05:46:45;7.80;;;5.27;;
76582;SDS011;65462;52.148;7.940;2023-04-08T05:49:10;6.97;;;5.20;;
76582;SDS011;65462;52.148;7.940;2023-04-08T05:51:36;6.87;;;4.63;;
76582;SDS011;65462;52.148;7.940;2023-04-08T05:54:01;6.50;;;4.70;;
76582;SDS011;65462;52.148;7.940;2023-04-08T05:56:27;6.63;;;4.73;;
76582;SDS011;65462;52.148;7.940;2023-04-08T05:58:52;7.63;;;5.13;;
76582;SDS011;65462;52.148;7.940;2023-04-08T06:01:17;8.37;;;5.37;;
76582;SDS011;65462;52.148;7.940;2023-04-08T06:03:42;7.20;;;5.10;;
76582;SDS011;65462;52.148;7.940;2023-04-08T06:06:08;8.93;;;5.37;;
76582;SDS011;65462;52.148;7.940;2023-04-08T06:08:36;6.93;;;4.77;;
76582;SDS011;65462;52.148;7.940;2023-04-08T06:11:02;8.77;;;5.87;;
76582;SDS011;65462;52.148;7.940;2023-04-08T06:13:30;7.40;;;5.47;;
76582;SDS011;65462;52.148;7.940;2023-04-08T06:15:56;8.30;;;5.47;;
76582;SDS011;65462;52.148;7.940;2023-04-08T06:18:22;8.10;;;5.70;;
76582;SDS011;65462;52.148;7.940;2023-04-08T06:20:48;9.13;;;5.53;;
76582;SDS011;65462;52.148;7.940;2023-04-08T06:23:13;8.70;;;5.80;;
76582;SDS011;65462;52.148;7.940;2023-04-08T06:25:38;8.43;;;6.13;;
76582;SDS011;65462;52.148;7.940;2023-04-08T06:28:04;8.57;;;5.77;;
76582;SDS011;65462;52.148;7.940;2023-04-08T06:30:29;9.43;;;6.30;;
76582;SDS011;65462;52.148;7.940;2023-04-08T06:32:54;7.90;;;5.63;;
76582;SDS011;65462;52.148;7.940;2023-04-08T06:35:19;9.97;;;6.60;;
76582;SDS011;65462;52.148;7.940;2023-04-08T06:37:45;9.17;;;6.13;;
76582;SDS011;65462;52.148;7.940;2023-04-08T06:40:10;9.93;;;5.83;;
76582;SDS011;65462;52.148;7.940;2023-04-08T06:42:36;8.63;;;5.40;;
76582;SDS011;65462;52.148;7.940;2023-04-08T06:45:02;8.47;;;6.33;;
76582;SDS011;65462;52.148;7.940;2023-04-08T06:47:28;10.40;;;6.23;;
76582;SDS011;65462;52.148;7.940;2023-04-08T06:49:56;8.73;;;5.87;;
76582;SDS011;65462;52.148;7.940;2023-04-08T06:52:21;8.87;;;5.87;;
76582;SDS011;65462;52.148;7.940;2023-04-08T06:54:47;8.93;;;5.70;;
76582;SDS011;65462;52.148;7.940;2023-04-08T06:57:12;8.53;;;6.10;;
76582;SDS011;65462;52.148;7.940;2023-04-08T06:59:37;8.77;;;5.37;;
76582;SDS011;65462;52.148;7.940;2023-04-08T07:02:02;9.93;;;5.67;;
76582;SDS011;65462;52.148;7.940;2023-04-08T07:04:28;9.60;;;6.03;;
76582;SDS011;65462;52.148;7.940;2023-04-08T07:06:53;7.17;;;5.07;;
76582;SDS011;65462;52.148;7.940;2023-04-08T07:09:18;8.80;;;5.80;;
76582;SDS011;65462;52.148;7.940;2023-04-08T07:11:43;8.23;;;5.57;;
76582;SDS011;65462;52.148;7.940;2023-04-08T07:14:09;9.43;;;6.17;;
76582;SDS011;65462;52.148;7.940;2023-04-08T07:16:35;10.60;;;6.47;;
76582;SDS011;65462;52.148;7.940;2023-04-08T07:19:00;11.57;;;6.50;;
76582;SDS011;65462;52.148;7.940;2023-04-08T07:21:26;9.87;;;6.83;;
76582;SDS011;65462;52.148;7.940;2023-04-08T07:23:51;11.40;;;7.10;;
76582;SDS011;65462;52.148;7.940;2023-04-08T07:26:16;10.87;;;7.37;;
76582;SDS011;65462;52.148;7.940;2023-04-08T07:28:42;10.83;;;7.47;;
76582;SDS011;65462;52.148;7.940;2023-04-08T07:31:08;11.93;;;8.20;;
76582;SDS011;65462;52.148;7.940;2023-04-08T07:33:35;12.27;;;8.00;;
76582;SDS011;65462;52.148;7.940;2023-04-08T07:36:00;13.20;;;8.03;;
76582;SDS011;65462;52.148;7.940;2023-04-08T07:38:26;15.27;;;9.23;;
76582;SDS011;65462;52.148;7.940;2023-04-08T07:40:51;16.37;;;9.13;;
76582;SDS011;65462;52.148;7.940;2023-04-08T07:43:17;13.60;;;8.47;;
76582;SDS011;65462;52.148;7.940;2023-04-08T07:45:42;14.93;;;9.10;;
76582;SDS011;65462;52.148;7.940;2023-04-08T07:48:07;13.53;;;9.03;;
76582;SDS011;65462;52.148;7.940;2023-04-08T07:50:34;14.80;;;9.43;;
76582;SDS011;65462;52.148;7.940;2023-04-08T07:53:01;13.23;;;9.07;;
76582;SDS011;65462;52.148;7.940;2023-04-08T07:55:26;13.80;;;9.23;;
76582;SDS011;65462;52.148;7.940;2023-04-08T07:57:51;14.13;;;9.30;;
76582;SDS011;65462;52.148;7.940;2023-04-08T08:00:16;14.87;;;9.60;;
76582;SDS011;65462;52.148;7.940;2023-04-08T08:02:45;13.63;;;9.50;;
76582;SDS011;65462;52.148;7.940;2023-04-08T08:05:12;14.77;;;9.60;;
76582;SDS011;65462;52.148;7.940;2023-04-08T08:07:37;16.43;;;9.77;;
76582;SDS011;65462;52.148;7.940;2023-04-08T08:10:02;15.07;;;10.43;;
76582;SDS011;65462;52.148;7.940;2023-04-08T08:12:28;15.33;;;9.97;;
76582;SDS011;65462;52.148;7.940;2023-04-08T08:14:53;16.27;;;10.50;;
76582;SDS011;65462;52.148;7.940;2023-04-08T08:17:22;16.43;;;11.07;;
76582;SDS011;65462;52.148;7.940;2023-04-08T08:19:48;17.67;;;11.77;;
76582;SDS011;65462;52.148;7.940;2023-04-08T08:22:14;18.60;;;12.00;;
76582;SDS011;65462;52.148;7.940;2023-04-08T08:24:39;20.63;;;13.20;;
76582;SDS011;65462;52.148;7.940;2023-04-08T08:27:04;19.70;;;12.47;;
76582;SDS011;65462;52.148;7.940;2023-04-08T08:29:30;18.73;;;12.57;;
76582;SDS011;65462;52.148;7.940;2023-04-08T08:31:55;19.27;;;12.40;;
76582;SDS011;65462;52.148;7.940;2023-04-08T08:34:21;19.53;;;13.00;;
76582;SDS011;65462;52.148;7.940;2023-04-08T08:36:47;22.10;;;13.10;;
76582;SDS011;65462;52.148;7.940;2023-04-08T08:39:12;22.83;;;13.23;;
76582;SDS011;65462;52.148;7.940;2023-04-08T08:41:40;21.03;;;13.30;;
76582;SDS011;65462;52.148;7.940;2023-04-08T08:44:06;20.60;;;13.77;;
76582;SDS011;65462;52.148;7.940;2023-04-08T08:46:32;19.53;;;12.87;;
76582;SDS011;65462;52.148;7.940;2023-04-08T08:48:58;20.80;;;13.53;;
76582;SDS011;65462;52.148;7.940;2023-04-08T08:51:24;20.57;;;12.50;;
76582;SDS011;65462;52.148;7.940;2023-04-08T08:53:51;22.70;;;13.60;;
76582;SDS011;65462;52.148;7.940;2023-04-08T08:56:17;23.33;;;14.20;;
76582;SDS011;65462;52.148;7.940;2023-04-08T08:58:42;22.00;;;14.03;;
76582;SDS011;65462;52.148;7.940;2023-04-08T09:07:07;19.93;;;12.83;;
76582;SDS011;65462;52.148;7.940;2023-04-08T09:09:49;20.17;;;13.20;;
76582;SDS011;65462;52.148;7.940;2023-04-08T09:12:15;20.57;;;12.63;;
76582;SDS011;65462;52.148;7.940;2023-04-08T09:14:40;20.17;;;12.67;;
76582;SDS011;65462;52.148;7.940;2023-04-08T09:17:06;20.50;;;13.17;;
76582;SDS011;65462;52.148;7.940;2023-04-08T09:19:32;19.93;;;12.83;;
76582;SDS011;65462;52.148;7.940;2023-04-08T09:22:08;20.30;;;11.63;;
76582;SDS011;65462;52.148;7.940;2023-04-08T09:24:34;18.47;;;11.43;;
76582;SDS011;65462;52.148;7.940;2023-04-08T09:27:03;21.97;;;11.70;;
76582;SDS011;65462;52.148;7.940;2023-04-08T09:29:29;20.20;;;12.33;;
76582;SDS011;65462;52.148;7.940;2023-04-08T09:31:58;21.33;;;12.27;;
76582;SDS011;65462;52.148;7.940;2023-04-08T09:34:25;21.27;;;12.63;;
76582;SDS011;65462;52.148;7.940;2023-04-08T09:36:51;17.60;;;11.73;;
76582;SDS011;65462;52.148;7.940;2023-04-08T09:39:18;19.92;;;12.50;;
76582;SDS011;65462;52.148;7.940;2023-04-08T09:41:44;19.30;;;11.93;;
76582;SDS011;65462;52.148;7.940;2023-04-08T09:44:13;17.20;;;11.10;;
76582;SDS011;65462;52.148;7.940;2023-04-08T09:49:15;19.48;;;10.75;;
76582;SDS011;65462;52.148;7.940;2023-04-08T09:51:52;19.52;;;10.80;;
76582;SDS011;65462;52.148;7.940;2023-04-08T09:54:25;18.35;;;10.70;;
76582;SDS011;65462;52.148;7.940;2023-04-08T09:57:04;16.92;;;10.23;;
76582;SDS011;65462;52.148;7.940;2023-04-08T09:59:42;14.65;;;9.55;;
76582;SDS011;65462;52.148;7.940;2023-04-08T10:02:12;16.48;;;9.75;;
76582;SDS011;65462;52.148;7.940;2023-04-08T10:04:43;16.05;;;9.43;;
76582;SDS011;65462;52.148;7.940;2023-04-08T10:07:12;17.73;;;9.20;;
76582;SDS011;65462;52.148;7.940;2023-04-08T10:09:38;13.63;;;8.60;;
76582;SDS011;65462;52.148;7.940;2023-04-08T10:12:05;14.70;;;9.02;;
76582;SDS011;65462;52.148;7.940;2023-04-08T10:14:30;17.08;;;9.02;;
76582;SDS011;65462;52.148;7.940;2023-04-08T10:19:53;17.95;;;10.35;;
76582;SDS011;65462;52.148;7.940;2023-04-08T10:27:39;18.10;;;10.48;;
76582;SDS011;65462;52.148;7.940;2023-04-08T10:30:26;17.38;;;10.57;;
76582;SDS011;65462;52.148;7.940;2023-04-08T10:32:56;19.98;;;11.57;;
76582;SDS011;65462;52.148;7.940;2023-04-08T10:35:33;16.52;;;10.27;;
76582;SDS011;65462;52.148;7.940;2023-04-08T10:38:00;16.27;;;10.10;;
76582;SDS011;65462;52.148;7.940;2023-04-08T10:40:26;15.70;;;9.55;;
76582;SDS011;65462;52.148;7.940;2023-04-08T10:42:55;15.32;;;10.30;;
76582;SDS011;65462;52.148;7.940;2023-04-08T10:45:21;15.77;;;10.52;;
76582;SDS011;65462;52.148;7.940;2023-04-08T10:47:46;16.20;;;10.68;;
76582;SDS011;65462;52.148;7.940;2023-04-08T10:50:16;18.90;;;11.68;;
76582;SDS011;65462;52.148;7.940;2023-04-08T10:52:52;16.20;;;10.98;;
76582;SDS011;65462;52.148;7.940;2023-04-08T10:55:24;14.98;;;9.65;;
76582;SDS011;65462;52.148;7.940;2023-04-08T10:57:51;16.65;;;11.50;;
76582;SDS011;65462;52.148;7.940;2023-04-08T11:00:17;17.48;;;11.98;;
76582;SDS011;65462;52.148;7.940;2023-04-08T11:02:43;15.20;;;10.75;;
76582;SDS011;65462;52.148;7.940;2023-04-08T11:05:11;18.33;;;11.48;;
76582;SDS011;65462;52.148;7.940;2023-04-08T11:07:42;16.52;;;11.52;;
76582;SDS011;65462;52.148;7.940;2023-04-08T11:10:08;17.25;;;11.75;;
76582;SDS011;65462;52.148;7.940;2023-04-08T11:12:34;19.25;;;12.77;;
76582;SDS011;65462;52.148;7.940;2023-04-08T11:15:01;19.75;;;12.63;;
76582;SDS011;65462;52.148;7.940;2023-04-08T11:17:28;20.40;;;12.60;;
76582;SDS011;65462;52.148;7.940;2023-04-08T11:19:54;19.63;;;13.77;;
76582;SDS011;65462;52.148;7.940;2023-04-08T11:22:19;23.52;;;14.52;;
76582;SDS011;65462;52.148;7.940;2023-04-08T11:24:45;21.95;;;14.90;;
76582;SDS011;65462;52.148;7.940;2023-04-08T11:27:11;21.02;;;14.80;;
76582;SDS011;65462;52.148;7.940;2023-04-08T11:29:36;23.67;;;15.77;;
76582;SDS011;65462;52.148;7.940;2023-04-08T11:32:02;27.60;;;17.70;;
76582;SDS011;65462;52.148;7.940;2023-04-08T11:34:27;24.13;;;16.02;;
76582;SDS011;65462;52.148;7.940;2023-04-08T11:36:54;24.73;;;15.55;;
76582;SDS011;65462;52.148;7.940;2023-04-08T11:39:22;21.25;;;14.70;;
76582;SDS011;65462;52.148;7.940;2023-04-08T11:41:48;21.60;;;15.23;;
76582;SDS011;65462;52.148;7.940;2023-04-08T11:44:14;22.48;;;15.85;;
76582;SDS011;65462;52.148;7.940;2023-04-08T11:46:39;24.40;;;16.48;;
76582;SDS011;65462;52.148;7.940;2023-04-08T11:49:07;20.80;;;15.23;;
76582;SDS011;65462;52.148;7.940;2023-04-08T11:51:33;23.17;;;14.75;;
76582;SDS011;65462;52.148;7.940;2023-04-08T11:54:03;20.30;;;13.85;;
76582;SDS011;65462;52.148;7.940;2023-04-08T11:56:30;17.83;;;12.40;;
76582;SDS011;65462;52.148;7.940;2023-04-08T11:58:57;18.95;;;13.30;;
76582;SDS011;65462;52.148;7.940;2023-04-08T12:01:22;19.77;;;13.18;;
76582;SDS011;65462;52.148;7.940;2023-04-08T12:03:55;18.63;;;12.68;;
76582;SDS011;65462;52.148;7.940;2023-04-08T12:06:25;17.27;;;12.48;;
76582;SDS011;65462;52.148;7.940;2023-04-08T12:08:52;19.45;;;12.73;;
76582;SDS011;65462;52.148;7.940;2023-04-08T12:11:18;21.08;;;13.80;;
76582;SDS011;65462;52.148;7.940;2023-04-08T12:13:43;19.80;;;13.75;;
76582;SDS011;65462;52.148;7.940;2023-04-08T12:16:09;18.95;;;13.20;;
76582;SDS011;65462;52.148;7.940;2023-04-08T12:18:34;19.52;;;12.55;;
76582;SDS011;65462;52.148;7.940;2023-04-08T12:21:01;16.00;;;10.90;;
76582;SDS011;65462;52.148;7.940;2023-04-08T12:23:26;17.08;;;12.55;;
76582;SDS011;65462;52.148;7.940;2023-04-08T12:25:51;17.73;;;12.30;;
76582;SDS011;65462;52.148;7.940;2023-04-08T12:28:17;18.95;;;13.68;;
76582;SDS011;65462;52.148;7.940;2023-04-08T12:30:42;19.05;;;14.25;;
76582;SDS011;65462;52.148;7.940;2023-04-08T12:33:07;22.95;;;14.52;;
76582;SDS011;65462;52.148;7.940;2023-04-08T12:35:32;18.67;;;13.45;;
76582;SDS011;65462;52.148;7.940;2023-04-08T12:37:58;21.75;;;13.85;;
76582;SDS011;65462;52.148;7.940;2023-04-08T12:40:23;18.80;;;13.00;;
76582;SDS011;65462;52.148;7.940;2023-04-08T12:42:48;18.27;;;13.52;;
76582;SDS011;65462;52.148;7.940;2023-04-08T12:45:14;19.92;;;14.10;;
76582;SDS011;65462;52.148;7.940;2023-04-08T12:47:39;20.10;;;12.93;;
76582;SDS011;65462;52.148;7.940;2023-04-08T12:50:05;18.13;;;12.82;;
76582;SDS011;65462;52.148;7.940;2023-04-08T12:52:30;17.83;;;12.40;;
76582;SDS011;65462;52.148;7.940;2023-04-08T12:54:57;16.98;;;11.90;;
76582;SDS011;65462;52.148;7.940;2023-04-08T12:57:22;16.95;;;11.32;;
76582;SDS011;65462;52.148;7.940;2023-04-08T12:59:47;16.58;;;11.45;;
76582;SDS011;65462;52.148;7.940;2023-04-08T13:02:12;18.20;;;11.25;;
76582;SDS011;65462;52.148;7.940;2023-04-08T13:04:38;18.20;;;11.10;;
76582;SDS011;65462;52.148;7.940;2023-04-08T13:07:03;17.63;;;11.65;;
76582;SDS011;65462;52.148;7.940;2023-04-08T13:09:29;16.88;;;11.27;;
76582;SDS011;65462;52.148;7.940;2023-04-08T13:11:54;20.05;;;12.13;;
76582;SDS011;65462;52.148;7.940;2023-04-08T13:14:20;19.55;;;11.60;;
76582;SDS011;65462;52.148;7.940;2023-04-08T13:16:45;19.95;;;12.10;;
76582;SDS011;65462;52.148;7.940;2023-04-08T13:19:11;18.63;;;12.48;;
76582;SDS011;65462;52.148;7.940;2023-04-08T13:21:37;21.42;;;12.55;;
76582;SDS011;65462;52.148;7.940;2023-04-08T13:24:02;20.98;;;12.82;;
76582;SDS011;65462;52.148;7.940;2023-04-08T13:26:27;22.85;;;13.93;;
76582;SDS011;65462;52.148;7.940;2023-04-08T13:28:53;21.80;;;13.93;;
76582;SDS011;65462;52.148;7.940;2023-04-08T13:31:18;21.35;;;13.63;;
76582;SDS011;65462;52.148;7.940;2023-04-08T13:33:43;20.75;;;13.52;;
76582;SDS011;65462;52.148;7.940;2023-04-08T13:36:09;19.45;;;12.90;;
76582;SDS011;65462;52.148;7.940;2023-04-08T13:38:34;22.42;;;14.05;;
76582;SDS011;65462;52.148;7.940;2023-04-08T13:41:00;22.15;;;14.45;;
76582;SDS011;65462;52.148;7.940;2023-04-08T13:43:25;22.17;;;14.70;;
76582;SDS011;65462;52.148;7.940;2023-04-08T13:45:51;24.10;;;14.63;;
76582;SDS011;65462;52.148;7.940;2023-04-08T13:48:16;22.60;;;14.75;;
76582;SDS011;65462;52.148;7.940;2023-04-08T13:50:41;21.83;;;14.18;;
76582;SDS011;65462;52.148;7.940;2023-04-08T13:53:07;23.67;;;14.93;;
76582;SDS011;65462;52.148;7.940;2023-04-08T13:55:32;25.83;;;16.80;;
76582;SDS011;65462;52.148;7.940;2023-04-08T13:57:58;27.20;;;16.65;;
76582;SDS011;65462;52.148;7.940;2023-04-08T14:00:23;23.52;;;15.50;;
76582;SDS011;65462;52.148;7.940;2023-04-08T14:02:49;28.15;;;16.73;;
76582;SDS011;65462;52.148;7.940;2023-04-08T14:05:15;29.55;;;18.52;;
76582;SDS011;65462;52.148;7.940;2023-04-08T14:07:40;30.15;;;19.08;;
76582;SDS011;65462;52.148;7.940;2023-04-08T14:10:06;29.63;;;18.33;;
76582;SDS011;65462;52.148;7.940;2023-04-08T14:12:32;29.30;;;17.95;;
76582;SDS011;65462;52.148;7.940;2023-04-08T14:14:57;27.85;;;17.80;;
76582;SDS011;65462;52.148;7.940;2023-04-08T14:17:22;28.33;;;17.70;;
76582;SDS011;65462;52.148;7.940;2023-04-08T14:19:47;28.13;;;17.10;;
76582;SDS011;65462;52.148;7.940;2023-04-08T14:22:13;27.88;;;16.73;;
76582;SDS011;65462;52.148;7.940;2023-04-08T14:24:39;25.38;;;15.93;;
76582;SDS011;65462;52.148;7.940;2023-04-08T14:27:04;27.35;;;16.45;;
76582;SDS011;65462;52.148;7.940;2023-04-08T14:29:29;28.10;;;16.58;;
76582;SDS011;65462;52.148;7.940;2023-04-08T14:31:54;29.65;;;16.55;;
76582;SDS011;65462;52.148;7.940;2023-04-08T14:34:20;29.63;;;17.45;;
76582;SDS011;65462;52.148;7.940;2023-04-08T14:36:46;29.38;;;17.65;;
76582;SDS011;65462;52.148;7.940;2023-04-08T14:39:11;33.38;;;19.38;;
76582;SDS011;65462;52.148;7.940;2023-04-08T14:41:37;32.08;;;18.73;;
76582;SDS011;65462;52.148;7.940;2023-04-08T14:44:02;28.70;;;17.70;;
76582;SDS011;65462;52.148;7.940;2023-04-08T14:46:28;26.13;;;16.42;;
76582;SDS011;65462;52.148;7.940;2023-04-08T14:48:53;27.75;;;17.30;;
76582;SDS011;65462;52.148;7.940;2023-04-08T14:51:19;27.25;;;16.92;;
76582;SDS011;65462;52.148;7.940;2023-04-08T14:53:44;29.38;;;17.25;;
76582;SDS011;65462;52.148;7.940;2023-04-08T14:56:09;25.98;;;16.73;;